METAR Data
IDs: Format: Raw Decoded Include TAF

Data at: 0304 UTC 25 Feb 2021

ETIK 250256Z AUTO 00000KT 9999 CLR 04/03 A3042 RMK AO2 SLP304 T00440026 57005 $